CheckWX is a tool to help pilots better visualize weather data.  It is not intended as a substitute for an official pre-flight weather briefing.

18:02:36 UTC

KAPA METAR
Centennial Airport
Denver, Colorado, USA
Current

10 mins ago

KAPA 171753Z 00000KT 10SM FEW060 FEW150 M01/M15 A2980 RMK AO2 SLP128 SHSN OMTNS DSNT W-NW T10111150 11011 21106 51005
Observed
Feb-17 @ 17:53 UTC
Visibility
10 SM
Flight Rules
VFR
Cloud Levels
  • Few at 6,000' AGL
  • Few at 15,000' AGL
Temperature
-1°C / 30°F
Dewpoint
-15°C / 5°F
Humidity
34%
Altimeter
29.8" Hg
Pressure
1012.8 hPa
Previous

1 hour ago

KAPA 171653Z 12003KT 10SM FEW060 FEW150 M03/M15 A2980 RMK AO2 SLP131 SHSN OMTNS DSNT NW T10281150
Observed
Feb-17 @ 16:53 UTC
Wind
  • 120° at 3 KTS
Visibility
10 SM
Flight Rules
VFR
Cloud Levels
  • Few at 6,000' AGL
  • Few at 15,000' AGL
Temperature
-3°C / 27°F
Dewpoint
-15°C / 5°F
Humidity
39%
Altimeter
29.8" Hg
Pressure
1013.1 hPa
Previous

2 hours ago

KAPA 171553Z 10003KT 10SM FEW060 SCT150 M05/M14 A2981 RMK AO2 SLP138 SHSN OMTNS DSNT NW T10501139
Observed
Feb-17 @ 15:53 UTC
Wind
  • 100° at 3 KTS
Visibility
10 SM
Flight Rules
VFR
Cloud Levels
  • Few at 6,000' AGL
  • Scattered at 15,000' AGL
Temperature
-5°C / 23°F
Dewpoint
-14°C / 7°F
Humidity
50%
Altimeter
29.81" Hg
Pressure
1013.8 hPa